Time;durP1;ratioP1;P1;durP2;ratioP2;P2;SDS_P1;SDS_P2;PMS_P1;PMS_P2;Temp;Humidity;BMP_temperature;BMP_pressure;BME280_temperature;BME280_humidity;BME280_pressure;Samples;Min_cycle;Max_cycle;Signal;HPM_P1;HPM_P2
2022/10/22 00:00:47;;;;;;;4.80;3.20;;;;;;;;;;5075470;28;20209;-88
2022/10/22 00:03:13;;;;;;;4.03;1.80;;;;;;;;;;5058867;28;20193;-88
2022/10/22 00:05:39;;;;;;;7.30;2.87;;;;;;;;;;5075656;28;20247;-88
2022/10/22 00:08:05;;;;;;;4.50;2.10;;;;;;;;;;5093503;28;20182;-88
2022/10/22 00:10:31;;;;;;;4.47;2.27;;;;;;;;;;5093333;28;20223;-88
2022/10/22 00:12:57;;;;;;;6.30;3.20;;;;;;;;;;5075506;28;20190;-87
2022/10/22 00:15:23;;;;;;;3.77;2.17;;;8.10;99.90;;;;;;5058459;28;20186;-88
2022/10/22 00:17:49;;;;;;;6.73;2.20;;;;;;;;;;5075411;28;20182;-88
2022/10/22 00:20:15;;;;;;;4.93;2.33;;;8.20;99.90;;;;;;5058853;28;20576;-89
2022/10/22 00:22:41;;;;;;;4.97;2.20;;;;;;;;;;5059936;28;20254;-88
2022/10/22 00:25:07;;;;;;;2.20;2.00;;;8.30;99.90;;;;;;5079996;28;20232;-88
2022/10/22 00:27:33;;;;;;;7.70;2.03;;;;;;;;;;5063025;28;20194;-88
2022/10/22 00:29:59;;;;;;;3.43;2.17;;;7.80;99.90;;;;;;5080127;28;20193;-86
2022/10/22 00:32:25;;;;;;;3.20;2.00;;;;;;;;;;5086363;28;20166;-88
2022/10/22 00:34:51;;;;;;;3.07;1.90;;;8.10;99.90;;;;;;5119236;28;20186;-87
2022/10/22 00:37:16;;;;;;;3.40;2.23;;;7.90;99.90;;;;;;5083570;28;20181;-87
2022/10/22 00:39:42;;;;;;;4.03;2.43;;;;;;;;;;5062360;28;20213;-88
2022/10/22 00:42:18;;;;;;;5.20;2.50;;;8.10;99.90;;;;;;5079266;28;20174;-88
2022/10/22 00:45:03;;;;;;;3.50;2.33;;;8.10;99.90;;;;;;5097503;28;20237;-88
2022/10/22 00:47:45;;;;;;;7.23;2.27;;;8.10;99.90;;;;;;5078966;28;20178;-88
2022/10/22 00:50:16;;;;;;;1.93;1.80;;;8.10;99.90;;;;;;5079171;28;20628;-87
2022/10/22 00:52:42;;;;;;;2.83;2.13;;;8.10;99.90;;;;;;5079211;28;20274;-87
2022/10/22 00:55:08;;;;;;;4.40;2.43;;;8.10;99.90;;;;;;5097376;28;20221;-88
2022/10/22 00:57:35;;;;;;;3.33;2.20;;;8.10;99.90;;;;;;5078633;28;20710;-87
2022/10/22 01:00:00;;;;;;;4.80;2.57;;;8.10;99.90;;;;;;5097269;28;20238;-87
2022/10/22 01:02:26;;;;;;;2.87;1.97;;;8.10;99.90;;;;;;5078343;28;20186;-87
2022/10/22 01:04:52;;;;;;;4.63;2.40;;;8.00;99.90;;;;;;5096651;28;20213;-87
2022/10/22 01:07:20;;;;;;;3.73;2.47;;;8.10;99.90;;;;;;5102918;27;20166;-87
2022/10/22 01:10:09;;;;;;;5.73;2.67;;;8.10;99.90;;;;;;5103080;28;20166;-87
2022/10/22 01:12:57;;;;;;;4.27;2.37;;;8.00;99.90;;;;;;5120703;27;20151;-88
2022/10/22 01:15:37;;;;;;;3.40;2.13;;;8.00;99.90;;;;;;5120612;27;20170;-92
2022/10/22 01:18:41;;;;;;;3.37;2.30;;;8.00;99.90;;;;;;5103147;27;20177;-86
2022/10/22 01:21:24;;;;;;;4.10;1.83;;;8.00;99.90;;;;;;5019798;28;20204;-86
2022/10/22 01:24:11;;;;;;;4.03;2.50;;;8.00;99.90;;;;;;5111468;27;20186;-85
2022/10/22 01:26:56;;;;;;;4.73;2.10;;;8.00;99.90;;;;;;5103050;28;20171;-87
2022/10/22 01:29:29;;;;;;;3.37;2.17;;;8.10;99.90;;;;;;5103147;27;20230;-86
2022/10/22 01:31:59;;;;;;;4.00;2.40;;;8.10;99.90;;;;;;5102966;28;20154;-86
2022/10/22 01:34:28;;;;;;;3.93;2.50;;;8.20;99.90;;;;;;5102007;27;20170;-91
2022/10/22 01:36:56;;;;;;;3.93;2.40;;;8.10;99.90;;;;;;5120307;27;20177;-86
2022/10/22 01:39:24;;;;;;;4.03;2.00;;;8.10;99.90;;;;;;5102378;27;20155;-85
2022/10/22 01:41:52;;;;;;;4.83;2.77;;;8.10;99.90;;;;;;5093263;28;20299;-86
2022/10/22 01:44:30;;;;;;;4.67;2.33;;;8.10;99.90;;;;;;5077792;28;20638;-87
2022/10/22 01:47:29;;;;;;;4.57;2.30;;;8.10;99.90;;;;;;5096549;28;20200;-87
2022/10/22 01:50:13;;;;;;;4.17;2.40;;;8.10;99.90;;;;;;5094090;28;20166;-86
2022/10/22 01:52:57;;;;;;;6.03;1.93;;;8.10;99.90;;;;;;5079344;28;20170;-87
2022/10/22 01:55:45;;;;;;;6.67;1.93;;;8.10;99.90;;;;;;5096040;28;20178;-88
2022/10/22 01:58:37;;;;;;;5.47;2.20;;;8.10;99.90;;;;;;5077510;28;20579;-87
2022/10/22 02:01:24;;;;;;;3.37;1.90;;;8.10;99.90;;;;;;5077403;28;20274;-88
2022/10/22 02:04:06;;;;;;;8.80;2.63;;;8.10;99.90;;;;;;5077277;28;20220;-87
2022/10/22 02:06:34;;;;;;;3.07;2.27;;;8.10;99.90;;;;;;5095691;28;20254;-88
2022/10/22 02:09:01;;;;;;;5.13;2.80;;;8.10;99.90;;;;;;5091243;28;20187;-87
2022/10/22 02:11:27;;;;;;;2.47;1.83;;;8.10;99.90;;;;;;5091083;28;20350;-88
2022/10/22 02:13:57;;;;;;;5.17;2.63;;;8.20;99.90;;;;;;5061101;28;20260;-87
2022/10/22 02:16:44;;;;;;;5.90;2.70;;;8.20;99.90;;;;;;5077280;28;20559;-87
2022/10/22 02:19:26;;;;;;;4.93;1.93;;;8.20;99.90;;;;;;5077167;28;20611;-88
2022/10/22 02:21:53;;;;;;;3.07;2.03;;;8.30;99.90;;;;;;5077073;28;20239;-87
2022/10/22 02:24:20;;;;;;;3.73;2.27;;;8.30;99.90;;;;;;5077142;28;20653;-88
2022/10/22 02:27:06;;;;;;;2.83;1.80;;;8.30;99.90;;;;;;5060677;28;20187;-88
2022/10/22 02:30:01;;;;;;;3.40;1.80;;;8.40;99.90;;;;;;5077071;28;20536;-88
2022/10/22 02:32:31;;;;;;;3.90;2.50;;;8.40;99.90;;;;;;5088636;28;20194;-88
2022/10/22 02:34:59;;;;;;;4.17;2.37;;;8.50;99.90;;;;;;5100908;28;20170;-86
2022/10/22 02:37:26;;;;;;;5.30;2.30;;;8.50;99.90;;;;;;5096360;28;20180;-87
2022/10/22 02:39:52;;;;;;;2.80;2.07;;;8.50;99.90;;;;;;5060026;28;20298;-87
2022/10/22 02:42:18;;;;;;;3.77;2.10;;;8.50;99.90;;;;;;5076715;28;20243;-87
2022/10/22 02:44:44;;;;;;;4.13;2.67;;;8.60;99.90;;;;;;5059668;28;20635;-88
2022/10/22 02:47:09;;;;;;;4.37;2.70;;;8.60;99.90;;;;;;5093658;28;20186;-87
2022/10/22 02:49:35;;;;;;;4.63;2.23;;;8.60;99.90;;;;;;5076439;28;20224;-90
2022/10/22 02:52:00;;;;;;;4.10;2.67;;;8.70;99.90;;;;;;5043373;28;20175;-88
2022/10/22 02:54:26;;;;;;;3.83;2.23;;;8.70;99.90;;;;;;5076745;28;20182;-88
2022/10/22 02:56:52;;;;;;;2.80;2.00;;;8.70;99.90;;;;;;5059791;28;20178;-87
2022/10/22 02:59:17;;;;;;;7.73;2.47;;;8.70;99.90;;;;;;5075728;28;20727;-88
2022/10/22 03:01:43;;;;;;;3.47;2.50;;;8.70;99.90;;;;;;5076091;28;20642;-86
2022/10/22 03:04:09;;;;;;;2.73;2.23;;;;;;;;;;5077154;28;20179;-88
2022/10/22 03:06:35;;;;;;;3.63;2.73;;;8.70;99.90;;;;;;5077384;28;20185;-86
2022/10/22 03:09:01;;;;;;;3.87;2.50;;;8.70;99.90;;;;;;5076531;28;20175;-86
2022/10/22 03:11:26;;;;;;;4.37;2.27;;;8.70;99.90;;;;;;5059608;28;20266;-86
2022/10/22 03:13:52;;;;;;;2.77;1.97;;;8.70;99.90;;;;;;5060331;28;20541;-87
2022/10/22 03:16:17;;;;;;;6.37;2.47;;;8.70;99.90;;;;;;5075270;28;20718;-87
2022/10/22 03:18:43;;;;;;;3.00;2.23;;;8.70;99.90;;;;;;5091153;28;20178;-87
2022/10/22 03:21:11;;;;;;;3.63;2.40;;;8.60;99.90;;;;;;5073810;28;20213;-86
2022/10/22 03:23:39;;;;;;;4.00;2.47;;;8.60;99.90;;;;;;5106800;28;20205;-86
2022/10/22 03:26:05;;;;;;;5.53;2.60;;;8.60;99.90;;;;;;5080929;28;20242;-86
2022/10/22 03:28:32;;;;;;;3.13;2.37;;;8.60;99.90;;;;;;5042736;28;20187;-86
2022/10/22 03:30:57;;;;;;;3.20;1.90;;;8.60;99.90;;;;;;5075584;28;20197;-86
2022/10/22 03:33:23;;;;;;;2.90;1.60;;;8.60;99.90;;;;;;5075318;28;20190;-86
2022/10/22 03:35:49;;;;;;;4.33;2.50;;;8.70;99.90;;;;;;5093316;28;20179;-86
2022/10/22 03:38:14;;;;;;;6.10;2.43;;;8.70;99.90;;;;;;5075606;28;20207;-86
2022/10/22 03:40:43;;;;;;;2.87;2.30;;;8.70;99.90;;;;;;5096638;28;20685;-86
2022/10/22 03:43:08;;;;;;;3.57;2.80;;;8.70;99.90;;;;;;5075600;28;20178;-87
2022/10/22 03:45:34;;;;;;;2.47;2.23;;;8.70;99.90;;;;;;5077783;28;20643;-85
2022/10/22 03:48:00;;;;;;;4.13;2.30;;;8.70;99.90;;;;;;5088874;28;20236;-86
2022/10/22 03:50:25;;;;;;;5.70;3.03;;;8.70;99.90;;;;;;5064100;28;20187;-86
2022/10/22 03:52:52;;;;;;;3.23;2.00;;;8.70;99.90;;;;;;5041888;28;20178;-87
2022/10/22 03:55:17;;;;;;;2.93;2.10;;;8.70;99.90;;;;;;5093470;28;20182;-87
2022/10/22 03:57:43;;;;;;;2.90;2.33;;;8.70;99.90;;;;;;5063317;28;20230;-85
2022/10/22 04:00:09;;;;;;;2.13;1.73;;;8.80;99.90;;;;;;5058717;28;20313;-86
2022/10/22 04:02:35;;;;;;;3.73;2.47;;;;;;;;;;5075374;28;20219;-86
2022/10/22 04:05:01;;;;;;;4.03;2.57;;;8.70;99.90;;;;;;5058460;28;20225;-86
2022/10/22 04:07:27;;;;;;;4.63;2.27;;;8.80;99.90;;;;;;5058715;28;20254;-86
2022/10/22 04:09:52;;;;;;;4.67;2.30;;;8.70;99.90;;;;;;5075105;28;20278;-87
2022/10/22 04:12:18;;;;;;;2.70;2.40;;;8.70;99.90;;;;;;5075578;28;20624;-86
2022/10/22 04:14:44;;;;;;;3.93;2.50;;;8.70;99.90;;;;;;5093313;28;20623;-86
2022/10/22 04:17:09;;;;;;;3.30;1.87;;;8.80;99.90;;;;;;5058383;28;20187;-86
2022/10/22 04:19:35;;;;;;;4.67;2.50;;;8.80;99.90;;;;;;5093650;28;20233;-87
2022/10/22 04:22:01;;;;;;;5.03;2.20;;;8.80;99.90;;;;;;5074796;28;20634;-87
2022/10/22 04:24:28;;;;;;;3.87;2.77;;;8.80;99.90;;;;;;5075091;28;20183;-86
2022/10/22 04:26:54;;;;;;;5.87;2.33;;;8.80;99.90;;;;;;5074792;28;20174;-86
2022/10/22 04:29:20;;;;;;;2.97;1.80;;;8.80;99.90;;;;;;5058476;28;20189;-86
2022/10/22 04:31:45;;;;;;;6.67;2.37;;;8.80;99.90;;;;;;5075154;28;20178;-86
2022/10/22 04:34:11;;;;;;;4.90;2.53;;;8.80;99.90;;;;;;5058058;28;20186;-86
2022/10/22 04:36:36;;;;;;;4.63;2.43;;;8.70;99.90;;;;;;5075001;28;20258;-86
2022/10/22 04:39:03;;;;;;;4.17;2.20;;;8.70;99.90;;;;;;5057823;28;20185;-88
2022/10/22 04:41:32;;;;;;;6.17;2.20;;;8.60;99.90;;;;;;5041928;28;20233;-85
2022/10/22 04:43:58;;;;;;;4.17;2.33;;;8.60;99.90;;;;;;5092888;28;20178;-87
2022/10/22 04:46:27;;;;;;;8.03;2.50;;;8.50;99.90;;;;;;5093138;28;20206;-87
2022/10/22 04:48:53;;;;;;;7.97;2.90;;;8.50;99.90;;;;;;5074680;28;20220;-87
2022/10/22 04:51:21;;;;;;;3.97;2.47;;;8.40;99.90;;;;;;5058617;28;20217;-87
2022/10/22 04:53:47;;;;;;;3.70;2.33;;;8.40;99.90;;;;;;5092803;28;20170;-89
2022/10/22 04:56:20;;;;;;;9.33;2.60;;;8.40;99.90;;;;;;5074362;28;20537;-88
2022/10/22 04:58:50;;;;;;;9.97;4.33;;;8.30;99.90;;;;;;5092368;28;20226;-86
2022/10/22 05:01:22;;;;;;;11.93;5.63;;;8.30;99.90;;;;;;5074447;28;20199;-85
2022/10/22 05:03:49;;;;;;;35.97;12.27;;;8.20;99.90;;;;;;5074861;28;20183;-89
2022/10/22 05:06:15;;;;;;;14.60;7.63;;;8.10;99.90;;;;;;5057917;28;20202;-89
2022/10/22 05:08:42;;;;;;;16.00;6.33;;;;;;;;;;5058338;28;20197;-91
2022/10/22 05:11:19;;;;;;;15.00;6.33;;;7.70;99.90;;;;;;5096114;28;20184;-89
2022/10/22 05:13:45;;;;;;;17.87;6.00;;;8.00;99.90;;;;;;5078605;28;20185;-89
2022/10/22 05:16:12;;;;;;;19.53;6.77;;;8.00;99.90;;;;;;5061639;28;20190;-90
2022/10/22 05:18:41;;;;;;;5.73;3.20;;;7.90;99.90;;;;;;5078414;28;20185;-90
2022/10/22 05:21:15;;;;;;;8.47;4.07;;;7.90;99.90;;;;;;5078224;28;20210;-88
2022/10/22 05:23:41;;;;;;;9.70;3.47;;;7.80;99.90;;;;;;5096302;28;20171;-91
2022/10/22 05:26:09;;;;;;;5.97;3.30;;;8.00;99.90;;;;;;5077665;28;20183;-91
2022/10/22 05:28:36;;;;;;;13.00;3.27;;;;;;;;;;5079450;28;20174;-92
2022/10/22 05:31:02;;;;;;;7.53;2.87;;;7.80;99.90;;;;;;5095861;28;20261;-89
2022/10/22 05:33:29;;;;;;;4.17;2.83;;;7.80;99.90;;;;;;5077810;28;20841;-88
2022/10/22 05:35:55;;;;;;;4.77;3.00;;;;;;;;;;5058022;28;20259;-88
2022/10/22 05:38:22;;;;;;;6.70;3.13;;;;;;;;;;5077683;28;20178;-87
2022/10/22 05:40:48;;;;;;;4.17;2.40;;;;;;;;;;5079003;28;20202;-89
2022/10/22 05:43:13;;;;;;;6.17;3.37;;;7.80;99.90;;;;;;5077553;28;20195;-88
2022/10/22 05:45:40;;;;;;;5.27;3.33;;;7.90;99.90;;;;;;5078170;28;20572;-89
2022/10/22 05:48:08;;;;;;;5.60;2.73;;;8.10;99.90;;;;;;5095835;28;20170;-88
2022/10/22 05:50:38;;;;;;;4.03;2.53;;;8.10;99.90;;;;;;5077816;28;20635;-87
2022/10/22 05:53:06;;;;;;;6.53;2.43;;;8.50;99.90;;;;;;5077514;28;20650;-87
2022/10/22 05:55:37;;;;;;;3.27;2.00;;;8.20;99.90;;;;;;5024711;28;20232;-88
2022/10/22 05:58:03;;;;;;;7.90;4.73;;;8.30;99.90;;;;;;5086048;28;20222;-89
2022/10/22 06:00:29;;;;;;;4.50;2.83;;;8.40;99.90;;;;;;5060748;28;20210;-88
2022/10/22 06:02:57;;;;;;;6.17;3.23;;;8.60;99.90;;;;;;5077298;28;20205;-89
2022/10/22 06:05:23;;;;;;;3.77;2.70;;;8.60;99.90;;;;;;5060685;28;20179;-88
2022/10/22 06:07:48;;;;;;;3.00;2.33;;;8.70;99.90;;;;;;5077400;28;20190;-89
2022/10/22 06:10:18;;;;;;;3.57;2.53;;;8.80;99.90;;;;;;5076766;28;20190;-87
2022/10/22 06:12:44;;;;;;;6.70;3.27;;;8.80;99.90;;;;;;5095128;28;20174;-89
2022/10/22 06:15:15;;;;;;;4.33;2.93;;;8.90;99.90;;;;;;5060725;28;20187;-88
2022/10/22 06:17:43;;;;;;;3.07;2.60;;;8.90;99.90;;;;;;5077247;28;20185;-87
2022/10/22 06:20:12;;;;;;;6.87;2.90;;;8.90;99.90;;;;;;5078208;28;20213;-86
2022/10/22 06:22:38;;;;;;;3.30;2.50;;;8.70;99.90;;;;;;5084499;28;20174;-88
2022/10/22 06:25:05;;;;;;;4.83;3.50;;;9.10;99.90;;;;;;5084668;27;20213;-93
2022/10/22 06:27:31;;;;;;;6.10;2.97;;;;;;;;;;5101209;27;20159;-93
2022/10/22 06:29:57;;;;;;;5.60;3.00;;;;;;;;;;5090912;28;20661;-90
2022/10/22 06:32:23;;;;;;;4.63;2.37;;;8.90;99.90;;;;;;5076554;28;20186;-88
2022/10/22 06:34:49;;;;;;;5.00;3.40;;;9.00;99.90;;;;;;5095593;28;20175;-90
2022/10/22 06:37:15;;;;;;;7.27;3.33;;;9.10;99.90;;;;;;5060349;28;20186;-89
2022/10/22 06:39:41;;;;;;;6.70;3.20;;;9.20;99.90;;;;;;5059883;28;20300;-88
2022/10/22 06:42:06;;;;;;;17.80;3.03;;;9.30;99.90;;;;;;5059319;28;20292;-90
2022/10/22 06:44:32;;;;;;;5.40;2.57;;;9.40;99.90;;;;;;5059679;28;20174;-89
2022/10/22 06:46:58;;;;;;;5.97;3.23;;;9.60;99.90;;;;;;5059818;28;20178;-88
2022/10/22 06:49:23;;;;;;;4.80;2.40;;;9.70;99.90;;;;;;5059345;28;20285;-89
2022/10/22 06:51:53;;;;;;;5.10;2.50;;;9.80;99.90;;;;;;5059703;28;20699;-89
2022/10/22 06:54:20;;;;;;;9.23;2.90;;;9.80;99.90;;;;;;5094322;28;20226;-89
2022/10/22 06:56:46;;;;;;;5.13;3.03;;;9.90;99.90;;;;;;5076868;28;20210;-88
2022/10/22 06:59:12;;;;;;;5.10;2.70;;;9.90;99.90;;;;;;5059469;28;20721;-89
2022/10/22 07:01:38;;;;;;;6.03;3.67;;;10.00;99.90;;;;;;5061145;28;20233;-88
2022/10/22 07:04:04;;;;;;;4.70;2.53;;;10.10;99.90;;;;;;5085778;28;20190;-88
2022/10/22 07:06:30;;;;;;;6.43;3.43;;;10.20;99.90;;;;;;5101040;28;20235;-88
2022/10/22 07:08:57;;;;;;;12.53;2.70;;;10.30;99.90;;;;;;5076876;28;20266;-89
2022/10/22 07:11:29;;;;;;;9.67;2.83;;;10.50;99.90;;;;;;5076196;28;20183;-89
2022/10/22 07:13:58;;;;;;;5.27;2.97;;;10.60;99.90;;;;;;5076119;28;20835;-89
2022/10/22 07:16:24;;;;;;;5.28;3.17;;;10.70;99.90;;;;;;5094237;28;20182;-90
2022/10/22 07:18:50;;;;;;;4.40;2.73;;;10.80;99.90;;;;;;5094538;28;20182;-91
2022/10/22 07:21:19;;;;;;;6.17;3.23;;;10.80;99.90;;;;;;5059936;28;20624;-90
2022/10/22 07:23:44;;;;;;;7.20;4.65;;;10.80;99.90;;;;;;5076195;28;20224;-91
2022/10/22 07:26:13;;;;;;;6.67;3.43;;;11.00;99.90;;;;;;5059466;28;20543;-90
2022/10/22 07:28:39;;;;;;;7.23;3.70;;;11.00;99.90;;;;;;5076692;28;20174;-90
2022/10/22 07:31:07;;;;;;;6.35;3.25;;;11.00;99.90;;;;;;5076862;28;20270;-90
2022/10/22 07:33:33;;;;;;;17.53;4.20;;;11.10;99.90;;;;;;5089386;27;20163;-89
2022/10/22 07:36:00;;;;;;;8.70;3.57;;;11.30;99.90;;;;;;5083962;27;20158;-89
2022/10/22 07:38:27;;;;;;;5.77;3.40;;;12.10;99.90;;;;;;5100593;27;20233;-90
2022/10/22 07:40:52;;;;;;;6.28;3.47;;;10.90;99.90;;;;;;5100350;27;20198;-89
2022/10/22 07:43:18;;;;;;;7.20;3.40;;;;;;;;;;5066831;27;20181;-90
2022/10/22 07:49:06;;;;;;;7.32;3.33;;;11.50;99.90;;;;;;5360918;22;20321;-89
2022/10/22 07:51:34;;;;;;;6.53;3.83;;;11.60;99.90;;;;;;5080530;28;20160;-89
2022/10/22 07:54:02;;;;;;;5.70;3.38;;;11.50;99.90;;;;;;5067339;28;20172;-89
2022/10/22 07:56:28;;;;;;;8.63;3.83;;;11.40;99.90;;;;;;5071951;28;20254;-89
2022/10/22 07:58:54;;;;;;;5.47;3.43;;;;;;;;;;5058546;28;20164;-91
2022/10/22 08:01:29;;;;;;;6.72;3.75;;;11.60;99.90;;;;;;5059460;28;20200;-91
2022/10/22 08:03:57;;;;;;;5.33;4.23;;;11.70;99.90;;;;;;5076960;28;20151;-89
2022/10/22 08:06:23;;;;;;;5.95;3.65;;;;;;;;;;5070380;28;20534;-89
2022/10/22 08:08:49;;;;;;;5.72;3.42;;;11.60;99.90;;;;;;5052752;28;20182;-89
2022/10/22 08:11:15;;;;;;;13.52;4.28;;;11.50;99.90;;;;;;5021426;28;20190;-88
2022/10/22 08:13:41;;;;;;;9.68;3.75;;;;;;;;;;5023228;28;20195;-89
2022/10/22 08:16:07;;;;;;;10.00;3.60;;;11.60;99.90;;;;;;5042158;28;20693;-89
2022/10/22 08:18:33;;;;;;;7.63;3.40;;;;;;;;;;5040090;28;20183;-89
2022/10/22 08:20:58;;;;;;;16.52;4.10;;;11.70;99.90;;;;;;5056515;28;20301;-89
2022/10/22 08:23:25;;;;;;;7.40;4.78;;;11.80;99.90;;;;;;5057262;28;20640;-89
2022/10/22 08:25:50;;;;;;;10.88;3.72;;;11.90;99.90;;;;;;5042104;28;20187;-88
2022/10/22 08:28:16;;;;;;;6.90;3.22;;;11.90;99.90;;;;;;5020138;28;20687;-89
2022/10/22 08:30:43;;;;;;;10.32;3.65;;;;;;;;;;5020541;28;20195;-92
2022/10/22 08:33:09;;;;;;;10.57;4.35;;;12.00;99.90;;;;;;5021218;28;20198;-90
2022/10/22 08:35:35;;;;;;;6.55;4.40;;;11.80;99.90;;;;;;5057036;28;20565;-88
2022/10/22 08:38:00;;;;;;;7.43;4.50;;;;;;;;;;5053696;28;20622;-90
2022/10/22 08:40:33;;;;;;;9.88;4.63;;;12.10;99.90;;;;;;5058236;28;20227;-91
2022/10/22 08:43:08;;;;;;;11.98;5.00;;;12.20;99.90;;;;;;5050341;28;20183;-90
2022/10/22 08:45:46;;;;;;;13.35;4.68;;;12.30;99.90;;;;;;5076003;28;20201;-90
2022/10/22 08:48:33;;;;;;;13.20;4.55;;;12.50;99.90;;;;;;5059017;28;20230;-90
2022/10/22 08:50:59;;;;;;;29.33;5.80;;;12.60;99.90;;;;;;5059183;28;20187;-93
2022/10/22 08:53:28;;;;;;;28.75;5.05;;;12.60;99.90;;;;;;5042809;28;20183;-90
2022/10/22 08:55:58;;;;;;;10.27;4.32;;;12.70;99.90;;;;;;5059004;28;20183;-89
2022/10/22 08:58:42;;;;;;;12.90;4.60;;;12.70;99.90;;;;;;5059537;28;20176;-89
2022/10/22 09:01:16;;;;;;;8.52;4.47;;;12.70;99.90;;;;;;5079957;28;20660;-89
2022/10/22 09:04:01;;;;;;;12.32;4.75;;;11.00;99.90;;;;;;5062189;28;20634;-90
2022/10/22 09:06:30;;;;;;;8.63;4.53;;;12.70;99.90;;;;;;5079461;28;20163;-89
2022/10/22 09:08:58;;;;;;;7.35;4.10;;;12.70;99.90;;;;;;5062339;28;20186;-90
2022/10/22 09:11:31;;;;;;;9.52;3.67;;;12.70;99.90;;;;;;5100545;28;20166;-92
2022/10/22 09:13:58;;;;;;;8.30;5.30;;;13.30;99.90;;;;;;5081745;28;20175;-88
2022/10/22 09:16:42;;;;;;;7.78;4.25;;;12.80;99.90;;;;;;5071371;28;20171;-89
2022/10/22 09:19:34;;;;;;;8.48;4.13;;;12.80;99.90;;;;;;5093527;28;20178;-91
2022/10/22 09:22:42;;;;;;;11.85;4.97;;;12.90;99.90;;;;;;5074553;28;20266;-89
2022/10/22 09:25:16;;;;;;;7.43;4.10;;;13.00;99.90;;;;;;5081943;28;20178;-90
2022/10/22 09:27:42;;;;;;;7.90;4.72;;;13.10;99.90;;;;;;5057887;28;20182;-87
2022/10/22 09:30:22;;;;;;;7.18;4.13;;;13.10;99.90;;;;;;5024888;28;20256;-89
2022/10/22 09:32:58;;;;;;;8.05;4.45;;;13.10;99.90;;;;;;5056945;28;20550;-88
2022/10/22 09:35:24;;;;;;;9.98;5.13;;;13.10;99.90;;;;;;5074688;28;20174;-88
2022/10/22 09:37:55;;;;;;;8.13;4.75;;;13.00;99.90;;;;;;5074590;28;20530;-89
2022/10/22 09:40:22;;;;;;;10.30;4.63;;;12.90;99.90;;;;;;5057704;28;20594;-90
2022/10/22 09:42:48;;;;;;;8.63;4.82;;;12.90;99.90;;;;;;5057510;28;20179;-89
2022/10/22 09:45:25;;;;;;;8.07;4.63;;;12.90;99.90;;;;;;5057425;28;20218;-88
2022/10/22 09:48:11;;;;;;;8.68;4.32;;;12.90;99.90;;;;;;5057422;28;20223;-88
2022/10/22 09:50:49;;;;;;;11.82;4.57;;;13.00;99.90;;;;;;5060401;28;20175;-92
2022/10/22 09:53:57;;;;;;;7.30;4.07;;;13.00;99.90;;;;;;5046655;28;20278;-87
2022/10/22 09:56:35;;;;;;;8.90;4.95;;;12.90;99.90;;;;;;4978749;28;20178;-90
2022/10/22 09:59:01;;;;;;;10.70;4.03;;;12.90;99.90;;;;;;5071828;28;20217;-90
2022/10/22 10:01:37;;;;;;;8.00;4.72;;;13.00;99.90;;;;;;5061612;28;20194;-91
2022/10/22 10:04:09;;;;;;;9.75;4.43;;;13.00;99.90;;;;;;5092685;28;20167;-89
2022/10/22 10:06:37;;;;;;;10.23;5.07;;;13.10;99.90;;;;;;5076858;28;20227;-90
2022/10/22 10:09:18;;;;;;;9.95;4.47;;;13.10;99.90;;;;;;5066182;28;20552;-90
2022/10/22 10:12:00;;;;;;;9.55;4.80;;;13.10;99.90;;;;;;5058067;28;20194;-92
2022/10/22 10:14:55;;;;;;;10.73;5.22;;;13.10;99.90;;;;;;5075782;28;20205;-96
2022/10/22 10:17:48;;;;;;;10.38;4.95;;;13.70;99.90;;;;;;5038861;28;20195;-87
2022/10/22 10:20:32;;;;;;;9.40;4.85;;;13.10;99.90;;;;;;5074501;28;20195;-85
2022/10/22 10:22:57;;;;;;;11.45;5.05;;;13.20;99.90;;;;;;5055844;28;20179;-85
2022/10/22 10:25:31;;;;;;;7.93;4.57;;;13.20;99.90;;;;;;5074017;28;20225;-85
2022/10/22 10:28:18;;;;;;;8.15;4.57;;;13.30;99.90;;;;;;5073863;28;20182;-86
2022/10/22 10:31:06;;;;;;;9.48;4.97;;;13.40;99.90;;;;;;5073672;28;20172;-86
2022/10/22 10:34:03;;;;;;;9.45;5.57;;;13.40;99.90;;;;;;5018788;28;20194;-86
2022/10/22 10:36:37;;;;;;;8.32;4.93;;;13.40;99.90;;;;;;5072804;28;20176;-86
2022/10/22 10:39:31;;;;;;;9.18;4.43;;;13.40;99.90;;;;;;5072638;28;20202;-89
2022/10/22 10:42:25;;;;;;;11.30;5.90;;;13.50;99.90;;;;;;5054433;28;20195;-89
2022/10/22 10:45:07;;;;;;;13.88;5.88;;;13.50;99.90;;;;;;5072452;28;20164;-88
2022/10/22 10:47:47;;;;;;;9.10;4.57;;;13.50;99.90;;;;;;5054128;28;20213;-87
2022/10/22 10:50:38;;;;;;;12.30;5.75;;;13.60;99.90;;;;;;5054409;28;20182;-88
2022/10/22 10:53:06;;;;;;;14.88;5.30;;;13.70;99.90;;;;;;5074255;28;20206;-89
2022/10/22 10:55:44;;;;;;;7.35;4.03;;;13.90;99.90;;;;;;5075427;28;20190;-86
2022/10/22 10:58:20;;;;;;;7.72;4.80;;;13.90;99.90;;;;;;5055974;28;20228;-85
2022/10/22 11:00:59;;;;;;;12.48;5.18;;;14.00;99.90;;;;;;5073349;28;20202;-85
2022/10/22 11:03:27;;;;;;;10.32;4.93;;;14.00;99.90;;;;;;5073949;28;20170;-85
2022/10/22 11:05:54;;;;;;;9.48;5.47;;;14.10;99.90;;;;;;5056078;28;20241;-85
2022/10/22 11:08:28;;;;;;;11.52;5.75;;;14.20;99.90;;;;;;5073193;28;20262;-85
2022/10/22 11:11:13;;;;;;;12.50;5.20;;;14.20;99.90;;;;;;5073552;28;20181;-85
2022/10/22 11:14:00;;;;;;;11.30;5.43;;;14.30;99.90;;;;;;5073496;28;20225;-86
2022/10/22 11:16:50;;;;;;;10.02;5.07;;;14.20;99.90;;;;;;5055951;28;20221;-85
2022/10/22 11:19:48;;;;;;;9.02;4.85;;;14.20;99.90;;;;;;5055753;28;20616;-86
2022/10/22 11:22:37;;;;;;;8.63;5.20;;;14.20;99.90;;;;;;5037090;28;20222;-86
2022/10/22 11:25:02;;;;;;;14.48;6.03;;;14.20;99.90;;;;;;5045616;28;20181;-89
2022/10/22 11:28:16;;;;;;;8.45;4.93;;;14.20;99.90;;;;;;5042091;28;20176;-87
2022/10/22 11:30:46;;;;;;;13.02;5.10;;;14.20;99.90;;;;;;5037986;28;20938;-88
2022/10/22 11:33:17;;;;;;;11.20;6.18;;;14.20;99.90;;;;;;5063750;28;20183;-86
2022/10/22 11:35:45;;;;;;;8.02;4.85;;;14.20;99.90;;;;;;5061345;28;20167;-87
2022/10/22 11:38:18;;;;;;;12.85;6.35;;;14.30;99.90;;;;;;5061144;28;20183;-86
2022/10/22 11:40:55;;;;;;;11.60;4.78;;;14.30;99.90;;;;;;5060065;28;20657;-87
2022/10/22 11:43:32;;;;;;;12.30;5.40;;;14.40;99.90;;;;;;5044788;28;20222;-86
2022/10/22 11:46:21;;;;;;;12.60;5.88;;;14.40;99.90;;;;;;5057640;28;20178;-88
2022/10/22 11:49:15;;;;;;;17.85;6.28;;;14.40;99.90;;;;;;5004720;28;20641;-87
2022/10/22 11:51:42;;;;;;;11.88;5.82;;;14.40;99.90;;;;;;5061541;28;20652;-87
2022/10/22 11:54:32;;;;;;;10.02;5.20;;;14.40;99.90;;;;;;5060839;28;20679;-88
2022/10/22 11:57:13;;;;;;;14.73;5.03;;;14.40;99.90;;;;;;5061405;28;20186;-89
2022/10/22 11:59:55;;;;;;;11.90;5.22;;;14.40;99.90;;;;;;5062330;28;20175;-87
2022/10/22 12:02:27;;;;;;;11.88;4.85;;;14.50;99.90;;;;;;5046697;28;20562;-89
2022/10/22 12:05:14;;;;;;;9.52;5.18;;;14.50;99.90;;;;;;5072255;28;20217;-87
2022/10/22 12:08:13;;;;;;;8.27;5.13;;;14.50;99.90;;;;;;5071226;28;20647;-87
2022/10/22 12:10:58;;;;;;;12.43;5.75;;;14.50;99.90;;;;;;5060201;28;20179;-87
2022/10/22 12:13:48;;;;;;;12.13;6.10;;;14.50;99.90;;;;;;5060821;28;20171;-84
2022/10/22 12:16:14;;;;;;;11.93;5.85;;;14.50;99.90;;;;;;5051559;28;20267;-85
2022/10/22 12:18:43;;;;;;;13.40;4.72;;;14.50;99.90;;;;;;5037770;28;20200;-87
2022/10/22 12:21:14;;;;;;;13.10;5.50;;;14.40;99.90;;;;;;5064222;28;20198;-87
2022/10/22 12:28:57;;;;;;;10.00;4.47;;;14.50;99.90;;;;;;5503889;23;20261;-86
2022/10/22 12:31:27;;;;;;;8.32;4.22;;;14.50;99.90;;;;;;4959767;28;20270;-91
2022/10/22 12:33:59;;;;;;;12.77;5.72;;;14.40;99.90;;;;;;4941968;28;20210;-88
2022/10/22 12:36:26;;;;;;;13.23;5.15;;;14.40;99.90;;;;;;4977076;28;20214;-86
2022/10/22 12:38:52;;;;;;;12.93;5.65;;;14.40;99.90;;;;;;4957704;28;20206;-85
2022/10/22 12:41:20;;;;;;;11.27;6.68;;;14.40;99.90;;;;;;4958197;28;20194;-86
2022/10/22 12:43:46;;;;;;;12.68;5.72;;;14.40;99.90;;;;;;4976529;28;20182;-85
2022/10/22 12:46:15;;;;;;;11.38;5.90;;;14.40;99.90;;;;;;4927596;28;20193;-87
2022/10/22 12:48:43;;;;;;;13.40;6.32;;;14.40;99.90;;;;;;4977149;28;20182;-86
2022/10/22 12:51:16;;;;;;;16.08;7.45;;;14.50;99.90;;;;;;4976523;28;20174;-86
2022/10/22 12:53:49;;;;;;;15.00;7.38;;;14.40;99.90;;;;;;4956982;28;20182;-87
2022/10/22 12:56:26;;;;;;;19.17;6.97;;;14.40;99.90;;;;;;4979479;28;20181;-87
2022/10/22 12:58:58;;;;;;;13.70;6.63;;;14.40;99.90;;;;;;4976380;28;20945;-88
2022/10/22 13:01:27;;;;;;;15.23;7.68;;;14.40;99.90;;;;;;4975942;28;20203;-89
2022/10/22 13:04:11;;;;;;;13.40;7.13;;;14.30;99.90;;;;;;4960330;28;20539;-86
2022/10/22 13:06:44;;;;;;;11.50;6.22;;;14.30;99.90;;;;;;4974064;28;20178;-88
2022/10/22 13:09:21;;;;;;;14.32;6.57;;;14.30;99.90;;;;;;4957620;28;20593;-89
2022/10/22 13:11:57;;;;;;;15.02;6.68;;;14.00;99.90;;;;;;4956464;28;20186;-89
2022/10/22 13:14:22;;;;;;;13.88;6.82;;;;;;;;;;4978210;28;20710;-91
2022/10/22 13:17:26;;;;;;;13.07;7.32;;;13.20;99.90;;;;;;4961487;28;20186;-88
2022/10/22 13:19:52;;;;;;;11.90;6.40;;;14.20;99.90;;;;;;4959978;28;20198;-89
2022/10/22 13:22:39;;;;;;;10.32;5.63;;;14.20;99.90;;;;;;4960454;28;20628;-88
2022/10/22 13:25:30;;;;;;;15.27;7.05;;;14.10;99.90;;;;;;4977881;28;20648;-89
2022/10/22 13:27:59;;;;;;;11.38;6.13;;;14.10;99.90;;;;;;4953305;28;20194;-90
2022/10/22 13:30:25;;;;;;;10.05;6.40;;;;;;;;;;4975255;28;20190;-90